createdAt,value
2023-04-29T00:00:08.501Z,72.04
2023-04-29T00:02:35.775Z,71.80
2023-04-29T00:05:05.304Z,71.56
2023-04-29T00:07:36.465Z,71.80
2023-04-29T00:10:03.291Z,71.85
2023-04-29T00:12:31.913Z,71.64
2023-04-29T00:14:58.530Z,72.13
2023-04-29T00:17:25.177Z,71.82
2023-04-29T00:19:51.996Z,72.54
2023-04-29T00:22:19.082Z,72.28
2023-04-29T00:24:45.684Z,72.35
2023-04-29T00:27:12.222Z,72.44
2023-04-29T00:29:38.761Z,73.10
2023-04-29T00:32:05.473Z,73.36
2023-04-29T00:34:32.073Z,73.38
2023-04-29T00:36:58.638Z,72.83
2023-04-29T00:39:25.359Z,73.13
2023-04-29T00:41:52.575Z,73.70
2023-04-29T00:44:19.423Z,73.70
2023-04-29T00:46:46.032Z,73.28
2023-04-29T00:49:13.854Z,73.93
2023-04-29T00:51:41.206Z,74.13
2023-04-29T00:54:08.958Z,74.57
2023-04-29T00:56:36.611Z,74.97
2023-04-29T00:59:04.791Z,75.34
2023-04-29T01:01:31.547Z,75.55
2023-04-29T01:03:58.942Z,75.27
2023-04-29T01:06:59.265Z,75.96
2023-04-29T01:09:44.343Z,75.60
2023-04-29T01:12:41.594Z,76.58
2023-04-29T01:15:22.542Z,76.66
2023-04-29T01:18:10.367Z,76.39
2023-04-29T01:20:38.090Z,77.39
2023-04-29T01:23:05.054Z,77.25
2023-04-29T01:25:31.586Z,77.70
2023-04-29T01:28:45.367Z,77.86
2023-04-29T01:31:32.680Z,78.09
2023-04-29T01:34:10.674Z,78.67
2023-04-29T01:36:44.318Z,78.80
2023-04-29T01:39:27.266Z,79.00
2023-04-29T01:42:00.645Z,79.34
2023-04-29T01:44:29.743Z,78.89
2023-04-29T01:46:56.951Z,79.13
2023-04-29T01:49:27.223Z,79.78
2023-04-29T01:51:54.171Z,79.83
2023-04-29T01:54:22.438Z,79.57
2023-04-29T01:56:49.034Z,79.33
2023-04-29T01:59:15.623Z,79.85
2023-04-29T02:01:42.354Z,79.69
2023-04-29T02:04:08.925Z,80.73
2023-04-29T02:06:35.477Z,80.42
2023-04-29T02:09:02.003Z,80.67
2023-04-29T02:11:28.536Z,81.02
2023-04-29T02:13:55.114Z,81.39
2023-04-29T02:16:21.893Z,81.03
2023-04-29T02:18:48.494Z,81.40
2023-04-29T02:21:15.032Z,81.72
2023-04-29T02:23:41.664Z,81.89
2023-04-29T02:26:09.438Z,81.72
2023-04-29T02:28:36.138Z,82.65
2023-04-29T02:31:02.892Z,82.84
2023-04-29T02:33:29.441Z,82.45
2023-04-29T02:35:56.250Z,83.25
2023-04-29T02:38:22.913Z,83.11
2023-04-29T02:40:50.322Z,82.96
2023-04-29T02:43:17.139Z,82.88
2023-04-29T02:45:44.709Z,83.30
2023-04-29T02:48:11.561Z,84.14
2023-04-29T02:50:38.241Z,83.98
2023-04-29T02:53:04.819Z,84.06
2023-04-29T02:55:31.350Z,83.83
2023-04-29T02:57:57.881Z,84.36
2023-04-29T03:00:24.523Z,84.43
2023-04-29T03:02:51.188Z,84.47
2023-04-29T03:05:17.925Z,83.99
2023-04-29T03:07:44.438Z,84.14
2023-04-29T03:10:12.212Z,84.52
2023-04-29T03:12:39.525Z,83.84
2023-04-29T03:15:07.947Z,84.06
2023-04-29T03:17:35.002Z,83.70
2023-04-29T03:20:01.740Z,83.56
2023-04-29T03:22:28.404Z,83.21
2023-04-29T03:24:54.934Z,83.73
2023-04-29T03:27:21.437Z,83.84
2023-04-29T03:29:48.537Z,83.59
2023-04-29T03:32:15.173Z,82.85
2023-04-29T03:34:41.722Z,83.26
2023-04-29T03:37:08.666Z,82.79
2023-04-29T03:39:35.211Z,82.18
2023-04-29T03:42:02.856Z,82.23
2023-04-29T03:44:29.491Z,82.17
2023-04-29T03:46:56.060Z,82.01
2023-04-29T03:49:23.701Z,81.84
2023-04-29T03:51:50.322Z,80.69
2023-04-29T03:54:17.440Z,80.92
2023-04-29T03:56:44.039Z,80.23
2023-04-29T03:59:10.831Z,80.49
2023-04-29T04:01:37.375Z,80.04
2023-04-29T04:04:04.109Z,80.77
2023-04-29T04:06:31.909Z,80.13
2023-04-29T04:08:58.542Z,79.67
2023-04-29T04:11:25.298Z,79.90
2023-04-29T04:13:52.148Z,79.36
2023-04-29T04:16:18.711Z,79.60
2023-04-29T04:18:45.393Z,78.80
2023-04-29T04:21:12.709Z,77.52
2023-04-29T04:23:44.129Z,76.73
2023-04-29T04:26:10.761Z,76.71
2023-04-29T04:28:37.297Z,75.87
2023-04-29T04:31:05.188Z,75.90
2023-04-29T04:33:32.339Z,73.98
2023-04-29T04:35:58.936Z,74.01
2023-04-29T04:38:26.399Z,73.02
2023-04-29T04:40:53.076Z,72.61
2023-04-29T04:43:19.812Z,72.67
2023-04-29T04:45:46.550Z,72.33
2023-04-29T04:48:13.385Z,70.90
2023-04-29T04:50:40.189Z,70.16
2023-04-29T04:53:06.845Z,69.01
2023-04-29T04:55:33.821Z,69.20
2023-04-29T04:58:00.513Z,68.38
2023-04-29T05:00:27.025Z,68.43
2023-04-29T05:02:53.760Z,68.16
2023-04-29T05:05:20.509Z,67.90
2023-04-29T05:07:47.352Z,67.11
2023-04-29T05:10:13.968Z,66.74
2023-04-29T05:12:40.652Z,66.97
2023-04-29T05:15:07.935Z,69.23
2023-04-29T05:17:36.529Z,67.16
2023-04-29T05:20:03.529Z,66.58
2023-04-29T05:22:30.101Z,67.33
2023-04-29T05:25:02.679Z,67.79
2023-04-29T05:27:29.933Z,66.54
2023-04-29T05:29:57.007Z,65.67
2023-04-29T05:32:23.833Z,66.29
2023-04-29T05:34:50.739Z,66.44
2023-04-29T05:37:17.304Z,66.41
2023-04-29T05:39:43.922Z,65.05
2023-04-29T05:42:10.521Z,66.36
2023-04-29T05:44:37.110Z,66.43
2023-04-29T05:47:03.909Z,65.09
2023-04-29T05:49:30.496Z,66.12
2023-04-29T05:51:57.023Z,65.99
2023-04-29T05:54:23.567Z,65.20
2023-04-29T05:56:50.150Z,65.47
2023-04-29T05:59:16.675Z,65.29
2023-04-29T06:01:43.234Z,64.61
2023-04-29T06:04:09.970Z,64.14
2023-04-29T06:06:36.856Z,65.00
2023-04-29T06:09:08.438Z,64.21
2023-04-29T06:11:37.448Z,64.53
2023-04-29T06:14:04.026Z,65.11
2023-04-29T06:18:57.385Z,63.80
2023-04-29T06:21:24.008Z,63.66
2023-04-29T06:23:50.712Z,62.88
2023-04-29T06:26:17.527Z,63.25
2023-04-29T06:28:44.075Z,63.67
2023-04-29T06:31:10.780Z,63.50
2023-04-29T06:33:37.491Z,62.93
2023-04-29T06:36:04.515Z,62.92
2023-04-29T06:38:31.150Z,63.16
2023-04-29T06:41:00.749Z,64.02
2023-04-29T06:43:28.040Z,63.61
2023-04-29T06:45:54.715Z,63.46
2023-04-29T06:48:21.607Z,63.57
2023-04-29T06:50:54.995Z,63.31
2023-04-29T06:53:22.397Z,62.97
2023-04-29T06:55:49.100Z,63.02
2023-04-29T06:58:16.669Z,63.04
2023-04-29T07:00:48.364Z,63.61
2023-04-29T07:03:15.637Z,63.32
2023-04-29T07:05:45.340Z,63.51
2023-04-29T07:08:13.360Z,63.53
2023-04-29T07:10:40.459Z,63.34
2023-04-29T07:13:08.434Z,63.21
2023-04-29T07:15:36.318Z,63.39
2023-04-29T07:18:06.738Z,63.21
2023-04-29T07:20:33.437Z,63.51
2023-04-29T07:23:00.007Z,62.80
2023-04-29T07:25:29.302Z,63.21
2023-04-29T07:27:56.665Z,64.17
2023-04-29T07:30:24.155Z,63.60
2023-04-29T07:32:50.719Z,63.59
2023-04-29T07:35:17.429Z,63.35
2023-04-29T07:37:44.187Z,63.79
2023-04-29T07:40:11.403Z,63.55
2023-04-29T07:42:38.010Z,64.03
2023-04-29T07:45:05.582Z,63.29
2023-04-29T07:47:32.186Z,63.89
2023-04-29T07:49:59.072Z,63.39
2023-04-29T07:52:25.607Z,63.26
2023-04-29T07:54:52.361Z,63.08
2023-04-29T07:57:19.059Z,62.82
2023-04-29T07:59:45.711Z,62.59
2023-04-29T08:02:12.233Z,63.05
2023-04-29T08:04:42.602Z,63.09
2023-04-29T08:07:09.672Z,62.60
2023-04-29T08:09:36.255Z,62.75
2023-04-29T08:12:02.903Z,62.56
2023-04-29T08:14:29.492Z,62.49
2023-04-29T08:16:56.110Z,62.72
2023-04-29T08:19:22.883Z,62.14
2023-04-29T08:21:49.474Z,62.37
2023-04-29T08:24:16.009Z,61.97
2023-04-29T08:26:42.949Z,62.09
2023-04-29T08:29:09.513Z,62.21
2023-04-29T08:31:36.232Z,62.53
2023-04-29T08:34:02.914Z,62.71
2023-04-29T08:36:29.892Z,62.87
2023-04-29T08:38:56.619Z,62.66
2023-04-29T08:41:23.400Z,62.30
2023-04-29T08:43:50.037Z,62.30
2023-04-29T08:46:18.163Z,61.90
2023-04-29T08:48:45.478Z,62.38
2023-04-29T08:51:16.074Z,61.84
2023-04-29T08:53:42.797Z,62.60
2023-04-29T08:56:16.504Z,62.47
2023-04-29T08:58:43.573Z,62.92
2023-04-29T09:01:11.105Z,62.80
2023-04-29T09:04:15.916Z,62.49
2023-04-29T09:06:42.460Z,62.55
2023-04-29T09:09:09.878Z,63.23
2023-04-29T09:11:37.399Z,63.81
2023-04-29T09:14:04.507Z,62.66
2023-04-29T09:16:31.340Z,63.60
2023-04-29T09:18:58.187Z,63.97
2023-04-29T09:21:31.564Z,63.42
2023-04-29T09:24:02.639Z,63.94
2023-04-29T09:26:43.974Z,64.02
2023-04-29T09:29:18.303Z,63.91
2023-04-29T09:31:45.911Z,63.69
2023-04-29T09:34:14.265Z,64.00
2023-04-29T09:36:49.759Z,63.96
2023-04-29T09:39:19.377Z,64.09
2023-04-29T09:41:54.947Z,63.75
2023-04-29T09:44:25.692Z,63.66
2023-04-29T09:47:09.134Z,63.11
2023-04-29T09:49:45.358Z,62.50
2023-04-29T09:52:14.966Z,61.87
2023-04-29T09:54:42.929Z,62.14
2023-04-29T09:57:11.801Z,61.17
2023-04-29T09:59:40.258Z,61.64
2023-04-29T10:02:18.264Z,61.88
2023-04-29T10:04:47.061Z,61.09
2023-04-29T10:07:16.626Z,60.38
2023-04-29T10:09:45.904Z,60.25
2023-04-29T10:12:16.375Z,60.48
2023-04-29T10:14:48.973Z,60.33
2023-04-29T10:17:27.286Z,60.55
2023-04-29T10:20:05.998Z,59.61
2023-04-29T10:22:47.942Z,59.60
2023-04-29T10:25:20.025Z,60.16
2023-04-29T10:27:47.039Z,60.55
2023-04-29T10:30:19.955Z,59.55
2023-04-29T10:32:52.152Z,59.42
2023-04-29T10:35:23.281Z,59.92
2023-04-29T10:37:50.695Z,59.93
2023-04-29T10:40:18.774Z,59.65
2023-04-29T10:42:48.386Z,59.33
2023-04-29T10:45:27.570Z,59.60
2023-04-29T10:48:14.927Z,59.48
2023-04-29T10:50:47.227Z,59.28
2023-04-29T10:53:22.045Z,60.16
2023-04-29T10:55:53.147Z,59.80
2023-04-29T10:58:37.967Z,59.84
2023-04-29T11:01:05.538Z,60.43
2023-04-29T11:04:00.434Z,60.04
2023-04-29T11:06:36.499Z,59.96
2023-04-29T11:09:14.662Z,59.53
2023-04-29T11:11:46.444Z,59.48
2023-04-29T11:14:14.261Z,59.15
2023-04-29T11:16:49.422Z,59.41
2023-04-29T11:19:17.960Z,59.48
2023-04-29T11:21:47.045Z,59.84
2023-04-29T11:24:16.207Z,60.64
2023-04-29T11:26:44.030Z,60.48
2023-04-29T11:29:10.814Z,59.19
2023-04-29T11:31:39.372Z,59.23
2023-04-29T11:34:07.413Z,59.64
2023-04-29T11:36:34.516Z,59.50
2023-04-29T11:39:03.621Z,59.48
2023-04-29T11:41:31.652Z,58.99
2023-04-29T11:43:59.733Z,58.31
2023-04-29T11:46:28.248Z,57.89
2023-04-29T11:48:54.972Z,57.72
2023-04-29T11:51:22.560Z,57.51
2023-04-29T11:53:49.383Z,56.95
2023-04-29T11:56:16.061Z,57.39
2023-04-29T11:58:43.814Z,56.81
2023-04-29T12:01:11.325Z,57.20
2023-04-29T12:03:38.249Z,57.54
2023-04-29T12:06:06.599Z,57.84
2023-04-29T12:08:34.890Z,57.98
2023-04-29T12:11:01.791Z,58.16
2023-04-29T12:13:31.602Z,58.10
2023-04-29T12:15:58.977Z,58.08
2023-04-29T12:18:27.650Z,58.17
2023-04-29T12:20:57.416Z,58.18
2023-04-29T12:23:27.975Z,57.98
2023-04-29T12:25:57.827Z,58.03
2023-04-29T12:28:25.521Z,57.43
2023-04-29T12:30:56.741Z,57.13
2023-04-29T12:33:27.062Z,56.71
2023-04-29T12:35:56.955Z,56.73
2023-04-29T12:38:27.742Z,56.92
2023-04-29T12:40:55.459Z,56.92
2023-04-29T12:43:33.813Z,56.63
2023-04-29T12:46:05.103Z,55.96
2023-04-29T12:48:33.475Z,55.36
2023-04-29T12:51:01.729Z,55.18
2023-04-29T12:53:30.260Z,55.09
2023-04-29T12:55:57.741Z,55.03
2023-04-29T12:58:24.342Z,55.30
2023-04-29T13:00:51.138Z,55.58
2023-04-29T13:03:19.168Z,56.13
2023-04-29T13:05:51.437Z,55.62
2023-04-29T13:08:19.371Z,55.59
2023-04-29T13:10:46.350Z,55.61
2023-04-29T13:13:13.209Z,55.91
2023-04-29T13:15:39.776Z,56.06
2023-04-29T13:18:06.524Z,56.20
2023-04-29T13:20:39.866Z,56.85
2023-04-29T13:23:08.116Z,57.41
2023-04-29T13:25:34.647Z,57.48
2023-04-29T13:28:01.150Z,57.68
2023-04-29T13:30:27.692Z,57.75
2023-04-29T13:32:56.712Z,57.53
2023-04-29T13:35:29.659Z,57.58
2023-04-29T13:37:57.022Z,57.68
2023-04-29T13:40:27.503Z,57.33
2023-04-29T13:43:02.149Z,57.36
2023-04-29T13:45:39.046Z,56.91
2023-04-29T13:48:18.361Z,57.50
2023-04-29T13:53:51.228Z,56.86
2023-04-29T13:59:18.893Z,56.02
2023-04-29T14:02:14.857Z,55.21
2023-04-29T14:04:11.373Z,54.95
2023-04-29T14:06:38.329Z,55.75
2023-04-29T14:09:04.890Z,55.87
2023-04-29T14:11:36.389Z,55.20
2023-04-29T14:14:03.524Z,55.02
2023-04-29T14:16:30.783Z,55.14
2023-04-29T14:18:57.681Z,54.56
2023-04-29T14:21:24.263Z,53.60
2023-04-29T14:23:51.142Z,53.65
2023-04-29T14:26:28.046Z,54.17
2023-04-29T14:28:59.713Z,55.12
2023-04-29T14:31:28.169Z,55.02
2023-04-29T14:33:56.102Z,55.07
2023-04-29T14:36:22.970Z,55.64
2023-04-29T14:38:49.588Z,55.89
2023-04-29T14:41:16.213Z,55.97
2023-04-29T14:43:42.816Z,54.92
2023-04-29T14:46:09.457Z,55.64
2023-04-29T14:48:36.434Z,55.08
2023-04-29T14:51:03.055Z,54.48
2023-04-29T14:53:29.664Z,53.68
2023-04-29T14:55:56.270Z,53.26
2023-04-29T14:58:22.884Z,54.12
2023-04-29T15:00:50.998Z,54.48
2023-04-29T15:03:22.482Z,54.15
2023-04-29T15:05:52.210Z,54.71
2023-04-29T15:08:19.420Z,54.54
2023-04-29T15:10:49.941Z,55.19
2023-04-29T15:13:16.834Z,55.48
2023-04-29T15:15:43.372Z,54.76
2023-04-29T15:18:10.029Z,55.44
2023-04-29T15:20:37.464Z,55.70
2023-04-29T15:23:05.512Z,55.74
2023-04-29T15:25:36.543Z,55.93
2023-04-29T15:28:04.822Z,56.29
2023-04-29T15:30:32.241Z,56.11
2023-04-29T15:32:58.924Z,56.26
2023-04-29T15:35:25.625Z,55.34
2023-04-29T15:37:52.243Z,55.54
2023-04-29T15:40:19.405Z,55.50
2023-04-29T15:42:46.041Z,55.95
2023-04-29T15:45:12.773Z,55.74
2023-04-29T15:47:39.454Z,56.09
2023-04-29T15:50:07.208Z,55.68
2023-04-29T15:52:33.857Z,54.55
2023-04-29T15:55:00.392Z,55.16
2023-04-29T15:57:27.252Z,54.72
2023-04-29T15:59:54.242Z,54.69
2023-04-29T16:02:21.577Z,55.11
2023-04-29T16:04:48.405Z,55.46
2023-04-29T16:07:15.072Z,55.12
2023-04-29T16:09:41.690Z,55.34
2023-04-29T16:12:08.643Z,56.01
2023-04-29T16:14:35.205Z,55.94
2023-04-29T16:17:02.009Z,56.37
2023-04-29T16:19:28.746Z,56.62
2023-04-29T16:21:55.568Z,57.27
2023-04-29T16:24:22.239Z,58.01
2023-04-29T16:26:50.422Z,57.67
2023-04-29T16:29:18.424Z,58.56
2023-04-29T16:31:45.425Z,58.75
2023-04-29T16:34:12.706Z,58.25
2023-04-29T16:36:39.445Z,58.55
2023-04-29T16:39:06.276Z,58.62
2023-04-29T16:41:33.180Z,58.61
2023-04-29T16:43:59.723Z,58.44
2023-04-29T16:46:26.333Z,58.88
2023-04-29T16:48:56.745Z,58.07
2023-04-29T16:51:26.626Z,58.37
2023-04-29T16:53:53.448Z,58.79
2023-04-29T16:56:21.610Z,58.74
2023-04-29T16:58:48.644Z,59.15
2023-04-29T17:01:15.918Z,58.86
2023-04-29T17:03:42.616Z,59.09
2023-04-29T17:06:09.353Z,58.79
2023-04-29T17:08:36.154Z,58.47
2023-04-29T17:11:04.925Z,58.15
2023-04-29T17:13:31.688Z,58.37
2023-04-29T17:15:58.511Z,58.39
2023-04-29T17:18:25.059Z,58.43
2023-04-29T17:20:51.618Z,58.75
2023-04-29T17:23:18.350Z,59.23
2023-04-29T17:25:45.156Z,59.32
2023-04-29T17:28:11.776Z,59.22
2023-04-29T17:30:38.347Z,59.72
2023-04-29T17:33:07.799Z,59.76
2023-04-29T17:35:34.983Z,59.40
2023-04-29T17:38:01.504Z,59.75
2023-04-29T17:40:28.044Z,59.33
2023-04-29T17:42:54.660Z,59.99
2023-04-29T17:45:21.210Z,60.45
2023-04-29T17:47:48.481Z,60.45
2023-04-29T17:50:15.409Z,60.80
2023-04-29T17:52:42.708Z,61.02
2023-04-29T17:55:10.079Z,60.60
2023-04-29T17:57:38.144Z,60.93
2023-04-29T18:00:07.482Z,60.73
2023-04-29T18:02:34.679Z,60.14
2023-04-29T18:05:03.103Z,59.12
2023-04-29T18:07:29.506Z,59.53
2023-04-29T18:09:56.405Z,59.24
2023-04-29T18:12:24.127Z,58.65
2023-04-29T18:14:51.835Z,58.57
2023-04-29T18:17:18.639Z,58.73
2023-04-29T18:19:47.797Z,58.20
2023-04-29T18:22:14.576Z,58.14
2023-04-29T18:24:41.188Z,57.95
2023-04-29T18:27:07.910Z,58.32
2023-04-29T18:29:34.430Z,58.33
2023-04-29T18:32:01.112Z,58.06
2023-04-29T18:34:27.748Z,58.28
2023-04-29T18:36:54.277Z,59.03
2023-04-29T18:39:20.960Z,58.78
2023-04-29T18:41:47.531Z,58.88
2023-04-29T18:44:14.135Z,58.95
2023-04-29T18:46:41.162Z,58.74
2023-04-29T18:49:08.674Z,59.08
2023-04-29T18:51:35.481Z,58.89
2023-04-29T18:54:01.888Z,59.08
2023-04-29T18:56:28.543Z,59.07
2023-04-29T18:58:55.091Z,58.99
2023-04-29T19:01:21.715Z,59.41
2023-04-29T19:03:48.276Z,59.52
2023-04-29T19:06:14.864Z,59.60
2023-04-29T19:08:41.492Z,59.95
2023-04-29T19:11:07.892Z,59.53
2023-04-29T19:13:34.436Z,59.69
2023-04-29T19:16:01.106Z,60.41
2023-04-29T19:18:27.997Z,59.74
2023-04-29T19:20:56.084Z,59.62
2023-04-29T19:23:22.695Z,60.18
2023-04-29T19:25:49.278Z,60.55
2023-04-29T19:28:15.877Z,60.28
2023-04-29T19:30:42.495Z,60.78
2023-04-29T19:33:09.096Z,60.37
2023-04-29T19:35:35.720Z,60.84
2023-04-29T19:38:02.473Z,60.64
2023-04-29T19:40:29.049Z,61.02
2023-04-29T19:42:55.619Z,61.13
2023-04-29T19:45:22.300Z,61.36
2023-04-29T19:47:50.011Z,61.10
2023-04-29T19:50:16.630Z,60.80
2023-04-29T19:52:43.159Z,60.92
2023-04-29T19:55:09.859Z,61.66
2023-04-29T19:57:36.449Z,61.45
2023-04-29T20:00:04.571Z,61.60
2023-04-29T20:02:32.931Z,61.67
2023-04-29T20:04:59.615Z,61.41
2023-04-29T20:07:26.156Z,61.67
2023-04-29T20:09:52.843Z,61.45
2023-04-29T20:12:19.598Z,61.50
2023-04-29T20:14:46.420Z,61.73
2023-04-29T20:17:13.546Z,61.50
2023-04-29T20:19:40.079Z,62.18
2023-04-29T20:22:06.708Z,61.72
2023-04-29T20:24:33.334Z,62.33
2023-04-29T20:26:59.974Z,62.69
2023-04-29T20:29:27.161Z,62.78
2023-04-29T20:31:53.681Z,62.21
2023-04-29T20:34:20.246Z,62.52
2023-04-29T20:36:46.831Z,62.87
2023-04-29T20:39:13.473Z,63.28
2023-04-29T20:41:40.169Z,63.13
2023-04-29T20:44:06.657Z,63.23
2023-04-29T20:46:33.206Z,63.23
2023-04-29T20:48:59.811Z,63.97
2023-04-29T20:51:26.846Z,63.47
2023-04-29T20:53:53.649Z,64.11
2023-04-29T20:56:20.236Z,63.83
2023-04-29T20:58:46.848Z,63.75
2023-04-29T21:01:13.539Z,63.98
2023-04-29T21:03:40.627Z,64.26
2023-04-29T21:06:07.572Z,64.29
2023-04-29T21:08:34.124Z,64.74
2023-04-29T21:11:01.637Z,64.91
2023-04-29T21:13:28.266Z,64.58
2023-04-29T21:15:54.802Z,64.65
2023-04-29T21:18:21.385Z,65.17
2023-04-29T21:20:48.055Z,64.72
2023-04-29T21:23:14.610Z,65.23
2023-04-29T21:25:41.177Z,65.30
2023-04-29T21:28:07.752Z,64.89
2023-04-29T21:30:34.304Z,65.52
2023-04-29T21:33:00.991Z,65.81
2023-04-29T21:35:27.674Z,65.39
2023-04-29T21:37:54.566Z,65.90
2023-04-29T21:40:21.408Z,65.56
2023-04-29T21:42:48.178Z,66.07
2023-04-29T21:45:18.224Z,66.01
2023-04-29T21:47:45.260Z,65.85
2023-04-29T21:50:12.130Z,66.21
2023-04-29T21:52:38.785Z,66.59
2023-04-29T21:55:05.835Z,66.76
2023-04-29T21:57:43.547Z,66.60
2023-04-29T22:00:20.565Z,66.61
2023-04-29T22:02:47.229Z,66.59
2023-04-29T22:05:13.908Z,66.07
2023-04-29T22:07:40.715Z,66.79
2023-04-29T22:10:07.719Z,66.86
2023-04-29T22:12:34.231Z,66.79
2023-04-29T22:15:00.852Z,67.03
2023-04-29T22:17:27.603Z,66.66
2023-04-29T22:19:54.307Z,67.32
2023-04-29T22:22:21.023Z,66.70
2023-04-29T22:24:47.584Z,67.12
2023-04-29T22:27:14.188Z,67.51
2023-04-29T22:29:40.968Z,67.00
2023-04-29T22:32:07.638Z,67.68
2023-04-29T22:34:34.360Z,67.32
2023-04-29T22:37:00.875Z,66.92
2023-04-29T22:39:27.434Z,67.24
2023-04-29T22:41:54.018Z,67.14
2023-04-29T22:44:20.729Z,67.08
2023-04-29T22:46:47.360Z,67.28
2023-04-29T22:49:13.990Z,67.68
2023-04-29T22:51:41.435Z,67.92
2023-04-29T22:54:08.221Z,67.25
2023-04-29T22:56:34.750Z,67.26
2023-04-29T22:59:01.320Z,67.62
2023-04-29T23:01:27.970Z,68.02
2023-04-29T23:03:54.536Z,67.88
2023-04-29T23:06:21.470Z,67.14
2023-04-29T23:08:48.249Z,67.70
2023-04-29T23:11:14.810Z,67.42
2023-04-29T23:13:41.499Z,68.01
2023-04-29T23:16:10.624Z,68.31
2023-04-29T23:18:37.635Z,67.43
2023-04-29T23:21:04.413Z,67.41
2023-04-29T23:23:30.936Z,67.84
2023-04-29T23:25:57.541Z,68.21
2023-04-29T23:28:24.840Z,67.95
2023-04-29T23:30:51.526Z,68.44
2023-04-29T23:33:18.050Z,68.09
2023-04-29T23:35:49.659Z,68.58
2023-04-29T23:38:16.748Z,69.12
2023-04-29T23:40:43.401Z,68.48
2023-04-29T23:43:10.045Z,68.28
2023-04-29T23:45:36.598Z,68.98
2023-04-29T23:48:03.366Z,68.52
2023-04-29T23:50:29.953Z,68.44
2023-04-29T23:52:56.688Z,69.54
2023-04-29T23:55:23.272Z,69.23
2023-04-29T23:57:49.932Z,69.38
